sensor_id;sensor_type;location;lat;lon;timestamp;P1;durP1;ratioP1;P2;durP2;ratioP2
9536;SDS011;4807;48.024;11.726;2023-05-21T00:01:46;10.77;;;6.20;;
9536;SDS011;4807;48.024;11.726;2023-05-21T00:04:55;6.93;;;6.27;;
9536;SDS011;4807;48.024;11.726;2023-05-21T00:08:05;6.87;;;6.27;;
9536;SDS011;4807;48.024;11.726;2023-05-21T00:11:14;8.70;;;6.60;;
9536;SDS011;4807;48.024;11.726;2023-05-21T00:14:23;7.30;;;6.33;;
9536;SDS011;4807;48.024;11.726;2023-05-21T00:17:32;6.67;;;5.97;;
9536;SDS011;4807;48.024;11.726;2023-05-21T00:20:42;6.93;;;5.77;;
9536;SDS011;4807;48.024;11.726;2023-05-21T00:23:52;6.87;;;6.20;;
9536;SDS011;4807;48.024;11.726;2023-05-21T00:27:01;7.23;;;6.00;;
9536;SDS011;4807;48.024;11.726;2023-05-21T00:30:10;7.97;;;6.47;;
9536;SDS011;4807;48.024;11.726;2023-05-21T00:33:19;7.33;;;6.30;;
9536;SDS011;4807;48.024;11.726;2023-05-21T00:36:28;6.33;;;5.33;;
9536;SDS011;4807;48.024;11.726;2023-05-21T00:39:38;7.47;;;6.20;;
9536;SDS011;4807;48.024;11.726;2023-05-21T00:42:47;7.07;;;6.33;;
9536;SDS011;4807;48.024;11.726;2023-05-21T00:45:55;6.67;;;6.00;;
9536;SDS011;4807;48.024;11.726;2023-05-21T00:49:04;6.57;;;5.77;;
9536;SDS011;4807;48.024;11.726;2023-05-21T00:52:13;6.73;;;6.13;;
9536;SDS011;4807;48.024;11.726;2023-05-21T00:55:26;7.37;;;5.70;;
9536;SDS011;4807;48.024;11.726;2023-05-21T00:58:35;8.47;;;5.30;;
9536;SDS011;4807;48.024;11.726;2023-05-21T01:01:45;6.10;;;5.50;;
9536;SDS011;4807;48.024;11.726;2023-05-21T01:04:59;6.30;;;5.70;;
9536;SDS011;4807;48.024;11.726;2023-05-21T01:08:09;7.43;;;5.30;;
9536;SDS011;4807;48.024;11.726;2023-05-21T01:11:21;8.23;;;6.37;;
9536;SDS011;4807;48.024;11.726;2023-05-21T01:14:45;6.03;;;5.43;;
9536;SDS011;4807;48.024;11.726;2023-05-21T01:17:54;6.03;;;5.27;;
9536;SDS011;4807;48.024;11.726;2023-05-21T01:21:04;6.70;;;6.00;;
9536;SDS011;4807;48.024;11.726;2023-05-21T01:24:16;8.40;;;5.87;;
9536;SDS011;4807;48.024;11.726;2023-05-21T01:27:25;6.80;;;5.57;;
9536;SDS011;4807;48.024;11.726;2023-05-21T01:30:34;6.77;;;6.03;;
9536;SDS011;4807;48.024;11.726;2023-05-21T01:33:45;6.40;;;5.80;;
9536;SDS011;4807;48.024;11.726;2023-05-21T01:37:07;6.10;;;5.27;;
9536;SDS011;4807;48.024;11.726;2023-05-21T01:40:28;6.53;;;5.30;;
9536;SDS011;4807;48.024;11.726;2023-05-21T01:43:44;5.80;;;5.20;;
9536;SDS011;4807;48.024;11.726;2023-05-21T01:46:53;5.93;;;5.33;;
9536;SDS011;4807;48.024;11.726;2023-05-21T01:50:06;6.23;;;4.63;;
9536;SDS011;4807;48.024;11.726;2023-05-21T01:53:16;5.97;;;4.90;;
9536;SDS011;4807;48.024;11.726;2023-05-21T01:56:27;5.70;;;5.10;;
9536;SDS011;4807;48.024;11.726;2023-05-21T01:59:39;7.03;;;5.07;;
9536;SDS011;4807;48.024;11.726;2023-05-21T02:02:49;7.37;;;4.87;;
9536;SDS011;4807;48.024;11.726;2023-05-21T02:05:59;5.83;;;5.13;;
9536;SDS011;4807;48.024;11.726;2023-05-21T02:09:08;5.67;;;5.00;;
9536;SDS011;4807;48.024;11.726;2023-05-21T02:12:18;5.07;;;4.57;;
9536;SDS011;4807;48.024;11.726;2023-05-21T02:15:28;5.83;;;4.80;;
9536;SDS011;4807;48.024;11.726;2023-05-21T02:18:40;5.83;;;4.90;;
9536;SDS011;4807;48.024;11.726;2023-05-21T02:21:49;5.13;;;4.63;;
9536;SDS011;4807;48.024;11.726;2023-05-21T02:24:58;5.47;;;4.40;;
9536;SDS011;4807;48.024;11.726;2023-05-21T02:28:10;5.70;;;4.60;;
9536;SDS011;4807;48.024;11.726;2023-05-21T02:31:19;6.90;;;4.70;;
9536;SDS011;4807;48.024;11.726;2023-05-21T02:34:28;6.17;;;4.83;;
9536;SDS011;4807;48.024;11.726;2023-05-21T02:37:38;5.20;;;4.60;;
9536;SDS011;4807;48.024;11.726;2023-05-21T02:40:47;5.13;;;4.63;;
9536;SDS011;4807;48.024;11.726;2023-05-21T02:43:58;5.07;;;4.57;;
9536;SDS011;4807;48.024;11.726;2023-05-21T02:47:07;6.13;;;4.37;;
9536;SDS011;4807;48.024;11.726;2023-05-21T02:50:17;5.60;;;4.77;;
9536;SDS011;4807;48.024;11.726;2023-05-21T02:53:33;8.37;;;4.63;;
9536;SDS011;4807;48.024;11.726;2023-05-21T02:56:42;5.27;;;4.27;;
9536;SDS011;4807;48.024;11.726;2023-05-21T02:59:52;8.37;;;4.83;;
9536;SDS011;4807;48.024;11.726;2023-05-21T03:03:02;5.80;;;4.47;;
9536;SDS011;4807;48.024;11.726;2023-05-21T03:06:11;6.10;;;4.80;;
9536;SDS011;4807;48.024;11.726;2023-05-21T03:09:22;7.67;;;5.03;;
9536;SDS011;4807;48.024;11.726;2023-05-21T03:12:31;5.10;;;4.60;;
9536;SDS011;4807;48.024;11.726;2023-05-21T03:15:47;5.37;;;4.87;;
9536;SDS011;4807;48.024;11.726;2023-05-21T03:18:56;5.60;;;4.70;;
9536;SDS011;4807;48.024;11.726;2023-05-21T03:22:05;5.17;;;4.23;;
9536;SDS011;4807;48.024;11.726;2023-05-21T03:25:15;5.13;;;4.63;;
9536;SDS011;4807;48.024;11.726;2023-05-21T03:28:24;5.60;;;4.87;;
9536;SDS011;4807;48.024;11.726;2023-05-21T03:31:39;6.70;;;5.13;;
9536;SDS011;4807;48.024;11.726;2023-05-21T03:34:50;6.53;;;4.97;;
9536;SDS011;4807;48.024;11.726;2023-05-21T03:37:59;5.67;;;4.67;;
9536;SDS011;4807;48.024;11.726;2023-05-21T03:41:09;5.73;;;4.93;;
9536;SDS011;4807;48.024;11.726;2023-05-21T03:44:20;6.07;;;4.90;;
9536;SDS011;4807;48.024;11.726;2023-05-21T03:47:37;5.30;;;4.80;;
9536;SDS011;4807;48.024;11.726;2023-05-21T03:50:49;6.67;;;4.90;;
9536;SDS011;4807;48.024;11.726;2023-05-21T03:53:58;7.10;;;5.80;;
9536;SDS011;4807;48.024;11.726;2023-05-21T03:57:14;6.23;;;5.00;;
9536;SDS011;4807;48.024;11.726;2023-05-21T04:00:25;5.13;;;4.63;;
9536;SDS011;4807;48.024;11.726;2023-05-21T04:03:38;5.87;;;5.27;;
9536;SDS011;4807;48.024;11.726;2023-05-21T04:06:52;6.17;;;5.00;;
9536;SDS011;4807;48.024;11.726;2023-05-21T04:10:01;6.50;;;5.40;;
9536;SDS011;4807;48.024;11.726;2023-05-21T04:13:11;5.80;;;5.03;;
9536;SDS011;4807;48.024;11.726;2023-05-21T04:16:20;5.93;;;5.37;;
9536;SDS011;4807;48.024;11.726;2023-05-21T04:19:32;9.23;;;5.43;;
9536;SDS011;4807;48.024;11.726;2023-05-21T04:22:42;7.90;;;5.17;;
9536;SDS011;4807;48.024;11.726;2023-05-21T04:25:52;8.00;;;5.07;;
9536;SDS011;4807;48.024;11.726;2023-05-21T04:29:02;6.63;;;5.20;;
9536;SDS011;4807;48.024;11.726;2023-05-21T04:32:11;6.90;;;4.63;;
9536;SDS011;4807;48.024;11.726;2023-05-21T04:35:25;5.03;;;4.53;;
9536;SDS011;4807;48.024;11.726;2023-05-21T04:38:34;5.57;;;4.93;;
9536;SDS011;4807;48.024;11.726;2023-05-21T04:41:45;7.63;;;4.97;;
9536;SDS011;4807;48.024;11.726;2023-05-21T04:44:56;6.93;;;5.00;;
9536;SDS011;4807;48.024;11.726;2023-05-21T04:48:07;5.57;;;5.07;;
9536;SDS011;4807;48.024;11.726;2023-05-21T04:51:17;5.97;;;5.17;;
9536;SDS011;4807;48.024;11.726;2023-05-21T04:54:26;5.83;;;5.03;;
9536;SDS011;4807;48.024;11.726;2023-05-21T04:57:39;6.40;;;4.47;;
9536;SDS011;4807;48.024;11.726;2023-05-21T05:00:49;9.57;;;5.03;;
9536;SDS011;4807;48.024;11.726;2023-05-21T05:03:59;6.17;;;5.57;;
9536;SDS011;4807;48.024;11.726;2023-05-21T05:07:10;5.70;;;4.97;;
9536;SDS011;4807;48.024;11.726;2023-05-21T05:10:25;6.30;;;4.70;;
9536;SDS011;4807;48.024;11.726;2023-05-21T05:13:34;5.70;;;4.70;;
9536;SDS011;4807;48.024;11.726;2023-05-21T05:16:43;5.10;;;4.60;;
9536;SDS011;4807;48.024;11.726;2023-05-21T05:19:55;7.00;;;4.87;;
9536;SDS011;4807;48.024;11.726;2023-05-21T05:23:06;5.47;;;4.60;;
9536;SDS011;4807;48.024;11.726;2023-05-21T05:26:15;4.80;;;4.27;;
9536;SDS011;4807;48.024;11.726;2023-05-21T05:29:24;5.10;;;4.60;;
9536;SDS011;4807;48.024;11.726;2023-05-21T05:32:33;5.40;;;4.30;;
9536;SDS011;4807;48.024;11.726;2023-05-21T05:35:42;4.93;;;4.53;;
9536;SDS011;4807;48.024;11.726;2023-05-21T05:38:52;5.63;;;4.60;;
9536;SDS011;4807;48.024;11.726;2023-05-21T05:42:01;4.47;;;4.10;;
9536;SDS011;4807;48.024;11.726;2023-05-21T05:45:10;5.40;;;4.47;;
9536;SDS011;4807;48.024;11.726;2023-05-21T05:48:19;5.00;;;4.00;;
9536;SDS011;4807;48.024;11.726;2023-05-21T05:51:28;4.97;;;4.13;;
9536;SDS011;4807;48.024;11.726;2023-05-21T05:54:38;4.97;;;4.47;;
9536;SDS011;4807;48.024;11.726;2023-05-21T05:57:47;5.27;;;4.30;;
9536;SDS011;4807;48.024;11.726;2023-05-21T06:00:57;5.83;;;4.90;;
9536;SDS011;4807;48.024;11.726;2023-05-21T06:04:09;5.33;;;4.70;;
9536;SDS011;4807;48.024;11.726;2023-05-21T06:07:18;5.03;;;4.53;;
9536;SDS011;4807;48.024;11.726;2023-05-21T06:10:30;4.73;;;4.33;;
9536;SDS011;4807;48.024;11.726;2023-05-21T06:13:39;4.20;;;3.80;;
9536;SDS011;4807;48.024;11.726;2023-05-21T06:16:48;5.70;;;4.70;;
9536;SDS011;4807;48.024;11.726;2023-05-21T06:19:58;5.17;;;4.40;;
9536;SDS011;4807;48.024;11.726;2023-05-21T06:23:07;4.70;;;4.30;;
9536;SDS011;4807;48.024;11.726;2023-05-21T06:26:17;7.30;;;4.27;;
9536;SDS011;4807;48.024;11.726;2023-05-21T06:29:28;6.67;;;4.87;;
9536;SDS011;4807;48.024;11.726;2023-05-21T06:32:39;5.93;;;4.17;;
9536;SDS011;4807;48.024;11.726;2023-05-21T06:35:47;6.23;;;4.90;;
9536;SDS011;4807;48.024;11.726;2023-05-21T06:38:58;4.57;;;4.17;;
9536;SDS011;4807;48.024;11.726;2023-05-21T06:42:08;5.23;;;4.70;;
9536;SDS011;4807;48.024;11.726;2023-05-21T06:45:23;4.83;;;4.17;;
9536;SDS011;4807;48.024;11.726;2023-05-21T06:48:38;5.20;;;4.70;;
9536;SDS011;4807;48.024;11.726;2023-05-21T06:51:47;4.00;;;3.70;;
9536;SDS011;4807;48.024;11.726;2023-05-21T06:54:55;4.10;;;3.80;;
9536;SDS011;4807;48.024;11.726;2023-05-21T06:58:09;4.77;;;4.37;;
9536;SDS011;4807;48.024;11.726;2023-05-21T07:01:18;5.70;;;4.77;;
9536;SDS011;4807;48.024;11.726;2023-05-21T07:04:27;5.67;;;4.80;;
9536;SDS011;4807;48.024;11.726;2023-05-21T07:07:36;5.47;;;4.47;;
9536;SDS011;4807;48.024;11.726;2023-05-21T07:10:44;4.73;;;4.33;;
9536;SDS011;4807;48.024;11.726;2023-05-21T07:13:56;4.33;;;3.93;;
9536;SDS011;4807;48.024;11.726;2023-05-21T07:17:07;5.30;;;4.50;;
9536;SDS011;4807;48.024;11.726;2023-05-21T07:20:16;8.07;;;6.20;;
9536;SDS011;4807;48.024;11.726;2023-05-21T07:23:28;5.13;;;4.60;;
9536;SDS011;4807;48.024;11.726;2023-05-21T07:26:37;6.27;;;4.60;;
9536;SDS011;4807;48.024;11.726;2023-05-21T07:29:47;5.13;;;4.10;;
9536;SDS011;4807;48.024;11.726;2023-05-21T07:32:56;5.03;;;4.50;;
9536;SDS011;4807;48.024;11.726;2023-05-21T07:36:04;4.63;;;4.23;;
9536;SDS011;4807;48.024;11.726;2023-05-21T07:39:13;4.57;;;4.03;;
9536;SDS011;4807;48.024;11.726;2023-05-21T07:42:22;4.63;;;4.10;;
9536;SDS011;4807;48.024;11.726;2023-05-21T07:45:34;4.93;;;4.13;;
9536;SDS011;4807;48.024;11.726;2023-05-21T07:48:44;4.27;;;3.87;;
9536;SDS011;4807;48.024;11.726;2023-05-21T07:51:53;4.90;;;4.40;;
9536;SDS011;4807;48.024;11.726;2023-05-21T07:55:03;4.60;;;4.20;;
9536;SDS011;4807;48.024;11.726;2023-05-21T07:58:14;4.83;;;4.43;;
9536;SDS011;4807;48.024;11.726;2023-05-21T08:01:25;4.40;;;4.00;;
9536;SDS011;4807;48.024;11.726;2023-05-21T08:04:36;5.17;;;4.67;;
9536;SDS011;4807;48.024;11.726;2023-05-21T08:07:48;4.40;;;4.00;;
9536;SDS011;4807;48.024;11.726;2023-05-21T08:10:58;6.00;;;4.57;;
9536;SDS011;4807;48.024;11.726;2023-05-21T08:14:08;5.67;;;4.40;;
9536;SDS011;4807;48.024;11.726;2023-05-21T08:17:22;6.27;;;4.80;;
9536;SDS011;4807;48.024;11.726;2023-05-21T08:20:31;4.43;;;4.03;;
9536;SDS011;4807;48.024;11.726;2023-05-21T08:23:40;6.17;;;4.03;;
9536;SDS011;4807;48.024;11.726;2023-05-21T08:26:49;5.77;;;4.70;;
9536;SDS011;4807;48.024;11.726;2023-05-21T08:29:57;4.40;;;4.00;;
9536;SDS011;4807;48.024;11.726;2023-05-21T08:33:08;5.63;;;4.20;;
9536;SDS011;4807;48.024;11.726;2023-05-21T08:36:17;5.47;;;4.97;;
9536;SDS011;4807;48.024;11.726;2023-05-21T08:39:32;4.90;;;4.03;;
9536;SDS011;4807;48.024;11.726;2023-05-21T08:42:41;5.23;;;4.73;;
9536;SDS011;4807;48.024;11.726;2023-05-21T08:45:59;4.83;;;4.43;;
9536;SDS011;4807;48.024;11.726;2023-05-21T08:49:15;4.83;;;4.37;;
9536;SDS011;4807;48.024;11.726;2023-05-21T08:52:25;4.63;;;4.30;;
9536;SDS011;4807;48.024;11.726;2023-05-21T08:55:37;4.37;;;3.97;;
9536;SDS011;4807;48.024;11.726;2023-05-21T08:58:48;7.00;;;4.20;;
9536;SDS011;4807;48.024;11.726;2023-05-21T09:02:01;6.17;;;4.30;;
9536;SDS011;4807;48.024;11.726;2023-05-21T09:05:17;4.20;;;3.90;;
9536;SDS011;4807;48.024;11.726;2023-05-21T09:08:28;4.07;;;3.77;;
9536;SDS011;4807;48.024;11.726;2023-05-21T09:11:45;4.83;;;3.80;;
9536;SDS011;4807;48.024;11.726;2023-05-21T09:14:54;4.17;;;3.77;;
9536;SDS011;4807;48.024;11.726;2023-05-21T09:18:08;3.70;;;3.40;;
9536;SDS011;4807;48.024;11.726;2023-05-21T09:21:26;3.67;;;3.37;;
9536;SDS011;4807;48.024;11.726;2023-05-21T09:24:52;3.80;;;3.50;;
9536;SDS011;4807;48.024;11.726;2023-05-21T09:28:09;4.60;;;3.97;;
9536;SDS011;4807;48.024;11.726;2023-05-21T09:31:19;3.90;;;3.60;;
9536;SDS011;4807;48.024;11.726;2023-05-21T09:34:29;4.43;;;4.03;;
9536;SDS011;4807;48.024;11.726;2023-05-21T09:37:40;4.77;;;4.30;;
9536;SDS011;4807;48.024;11.726;2023-05-21T09:40:50;4.47;;;4.07;;
9536;SDS011;4807;48.024;11.726;2023-05-21T09:44:03;3.97;;;3.60;;
9536;SDS011;4807;48.024;11.726;2023-05-21T09:47:18;4.33;;;3.70;;
9536;SDS011;4807;48.024;11.726;2023-05-21T09:50:28;4.47;;;4.10;;
9536;SDS011;4807;48.024;11.726;2023-05-21T09:53:43;4.50;;;4.10;;
9536;SDS011;4807;48.024;11.726;2023-05-21T09:56:56;4.73;;;4.20;;
9536;SDS011;4807;48.024;11.726;2023-05-21T10:00:07;4.20;;;3.90;;
9536;SDS011;4807;48.024;11.726;2023-05-21T10:03:24;4.10;;;3.70;;
9536;SDS011;4807;48.024;11.726;2023-05-21T10:06:36;4.50;;;4.20;;
9536;SDS011;4807;48.024;11.726;2023-05-21T10:09:51;5.17;;;4.53;;
9536;SDS011;4807;48.024;11.726;2023-05-21T10:13:03;4.93;;;4.43;;
9536;SDS011;4807;48.024;11.726;2023-05-21T10:16:13;4.37;;;3.97;;
9536;SDS011;4807;48.024;11.726;2023-05-21T10:19:23;5.77;;;4.60;;
9536;SDS011;4807;48.024;11.726;2023-05-21T10:22:32;4.83;;;4.33;;
9536;SDS011;4807;48.024;11.726;2023-05-21T10:25:43;5.20;;;4.70;;
9536;SDS011;4807;48.024;11.726;2023-05-21T10:28:54;5.83;;;4.20;;
9536;SDS011;4807;48.024;11.726;2023-05-21T10:32:06;4.97;;;3.93;;
9536;SDS011;4807;48.024;11.726;2023-05-21T10:35:14;3.40;;;3.20;;
9536;SDS011;4807;48.024;11.726;2023-05-21T10:38:24;4.33;;;3.70;;
9536;SDS011;4807;48.024;11.726;2023-05-21T10:41:36;3.70;;;3.40;;
9536;SDS011;4807;48.024;11.726;2023-05-21T10:45:05;6.67;;;4.53;;
9536;SDS011;4807;48.024;11.726;2023-05-21T10:48:34;4.83;;;3.60;;
9536;SDS011;4807;48.024;11.726;2023-05-21T10:52:03;4.30;;;3.90;;
9536;SDS011;4807;48.024;11.726;2023-05-21T10:55:24;4.23;;;3.43;;
9536;SDS011;4807;48.024;11.726;2023-05-21T10:59:05;4.80;;;4.37;;
9536;SDS011;4807;48.024;11.726;2023-05-21T11:02:27;4.50;;;4.20;;
9536;SDS011;4807;48.024;11.726;2023-05-21T11:05:39;4.87;;;4.40;;
9536;SDS011;4807;48.024;11.726;2023-05-21T11:08:59;4.40;;;4.00;;
9536;SDS011;4807;48.024;11.726;2023-05-21T11:12:17;4.10;;;3.73;;
9536;SDS011;4807;48.024;11.726;2023-05-21T11:15:30;3.83;;;3.60;;
9536;SDS011;4807;48.024;11.726;2023-05-21T11:19:15;3.77;;;3.47;;
9536;SDS011;4807;48.024;11.726;2023-05-21T11:22:25;4.67;;;3.63;;
9536;SDS011;4807;48.024;11.726;2023-05-21T11:25:34;6.00;;;3.60;;
9536;SDS011;4807;48.024;11.726;2023-05-21T11:28:42;3.97;;;3.67;;
9536;SDS011;4807;48.024;11.726;2023-05-21T11:31:59;4.67;;;4.00;;
9536;SDS011;4807;48.024;11.726;2023-05-21T11:35:09;5.77;;;3.93;;
9536;SDS011;4807;48.024;11.726;2023-05-21T11:38:21;4.37;;;3.77;;
9536;SDS011;4807;48.024;11.726;2023-05-21T11:41:31;6.03;;;3.53;;
9536;SDS011;4807;48.024;11.726;2023-05-21T11:45:00;3.90;;;3.60;;
9536;SDS011;4807;48.024;11.726;2023-05-21T11:48:13;3.73;;;3.43;;
9536;SDS011;4807;48.024;11.726;2023-05-21T11:51:22;6.67;;;4.17;;
9536;SDS011;4807;48.024;11.726;2023-05-21T11:54:31;4.20;;;3.80;;
9536;SDS011;4807;48.024;11.726;2023-05-21T11:57:46;3.83;;;3.50;;
9536;SDS011;4807;48.024;11.726;2023-05-21T12:01:00;5.23;;;3.60;;
9536;SDS011;4807;48.024;11.726;2023-05-21T12:04:10;4.57;;;3.73;;
9536;SDS011;4807;48.024;11.726;2023-05-21T12:07:19;3.83;;;3.33;;
9536;SDS011;4807;48.024;11.726;2023-05-21T12:10:27;3.70;;;3.30;;
9536;SDS011;4807;48.024;11.726;2023-05-21T12:13:36;4.17;;;3.60;;
9536;SDS011;4807;48.024;11.726;2023-05-21T12:16:44;5.77;;;3.83;;
9536;SDS011;4807;48.024;11.726;2023-05-21T12:19:55;4.07;;;3.77;;
9536;SDS011;4807;48.024;11.726;2023-05-21T12:23:03;3.77;;;3.47;;
9536;SDS011;4807;48.024;11.726;2023-05-21T12:26:11;4.23;;;3.30;;
9536;SDS011;4807;48.024;11.726;2023-05-21T12:29:22;4.93;;;3.93;;
9536;SDS011;4807;48.024;11.726;2023-05-21T12:32:32;3.80;;;3.50;;
9536;SDS011;4807;48.024;11.726;2023-05-21T12:35:42;3.53;;;3.23;;
9536;SDS011;4807;48.024;11.726;2023-05-21T12:38:56;3.37;;;3.07;;
9536;SDS011;4807;48.024;11.726;2023-05-21T12:42:04;3.70;;;3.40;;
9536;SDS011;4807;48.024;11.726;2023-05-21T12:45:14;3.80;;;3.40;;
9536;SDS011;4807;48.024;11.726;2023-05-21T12:48:24;4.37;;;3.70;;
9536;SDS011;4807;48.024;11.726;2023-05-21T12:51:40;7.17;;;4.00;;
9536;SDS011;4807;48.024;11.726;2023-05-21T12:54:51;5.90;;;3.80;;
9536;SDS011;4807;48.024;11.726;2023-05-21T12:58:01;5.57;;;3.33;;
9536;SDS011;4807;48.024;11.726;2023-05-21T13:01:14;4.93;;;3.30;;
9536;SDS011;4807;48.024;11.726;2023-05-21T13:04:23;4.67;;;3.57;;
9536;SDS011;4807;48.024;11.726;2023-05-21T13:07:34;4.63;;;3.67;;
9536;SDS011;4807;48.024;11.726;2023-05-21T13:10:44;3.10;;;2.90;;
9536;SDS011;4807;48.024;11.726;2023-05-21T13:13:52;3.87;;;3.23;;
9536;SDS011;4807;48.024;11.726;2023-05-21T13:17:00;3.40;;;3.10;;
9536;SDS011;4807;48.024;11.726;2023-05-21T13:20:09;5.00;;;4.03;;
9536;SDS011;4807;48.024;11.726;2023-05-21T13:23:21;5.57;;;3.70;;
9536;SDS011;4807;48.024;11.726;2023-05-21T13:26:30;3.93;;;3.53;;
9536;SDS011;4807;48.024;11.726;2023-05-21T13:29:38;4.13;;;3.70;;
9536;SDS011;4807;48.024;11.726;2023-05-21T13:32:47;4.27;;;3.97;;
9536;SDS011;4807;48.024;11.726;2023-05-21T13:35:55;4.43;;;4.13;;
9536;SDS011;4807;48.024;11.726;2023-05-21T13:39:05;3.60;;;3.17;;
9536;SDS011;4807;48.024;11.726;2023-05-21T13:42:14;6.00;;;3.97;;
9536;SDS011;4807;48.024;11.726;2023-05-21T13:45:22;4.23;;;3.83;;
9536;SDS011;4807;48.024;11.726;2023-05-21T13:48:34;5.17;;;4.37;;
9536;SDS011;4807;48.024;11.726;2023-05-21T13:51:42;4.63;;;4.13;;
9536;SDS011;4807;48.024;11.726;2023-05-21T13:54:52;4.13;;;3.60;;
9536;SDS011;4807;48.024;11.726;2023-05-21T13:58:01;3.93;;;3.63;;
9536;SDS011;4807;48.024;11.726;2023-05-21T14:01:10;4.30;;;4.00;;
9536;SDS011;4807;48.024;11.726;2023-05-21T14:04:19;4.13;;;3.73;;
9536;SDS011;4807;48.024;11.726;2023-05-21T14:07:27;4.23;;;3.73;;
9536;SDS011;4807;48.024;11.726;2023-05-21T14:10:37;4.23;;;3.73;;
9536;SDS011;4807;48.024;11.726;2023-05-21T14:13:46;3.83;;;3.43;;
9536;SDS011;4807;48.024;11.726;2023-05-21T14:16:54;4.40;;;3.90;;
9536;SDS011;4807;48.024;11.726;2023-05-21T14:20:02;4.20;;;3.53;;
9536;SDS011;4807;48.024;11.726;2023-05-21T14:23:12;4.13;;;3.80;;
9536;SDS011;4807;48.024;11.726;2023-05-21T14:26:23;4.10;;;3.70;;
9536;SDS011;4807;48.024;11.726;2023-05-21T14:29:31;7.60;;;3.70;;
9536;SDS011;4807;48.024;11.726;2023-05-21T14:32:40;4.43;;;2.97;;
9536;SDS011;4807;48.024;11.726;2023-05-21T14:35:48;3.23;;;2.90;;
9536;SDS011;4807;48.024;11.726;2023-05-21T14:38:57;6.07;;;3.13;;
9536;SDS011;4807;48.024;11.726;2023-05-21T14:42:07;3.57;;;3.27;;
9536;SDS011;4807;48.024;11.726;2023-05-21T14:45:15;4.17;;;3.67;;
9536;SDS011;4807;48.024;11.726;2023-05-21T14:48:25;7.63;;;3.70;;
9536;SDS011;4807;48.024;11.726;2023-05-21T14:51:33;7.00;;;3.50;;
9536;SDS011;4807;48.024;11.726;2023-05-21T14:54:41;3.77;;;3.47;;
9536;SDS011;4807;48.024;11.726;2023-05-21T14:57:52;4.47;;;4.07;;
9536;SDS011;4807;48.024;11.726;2023-05-21T15:01:00;3.97;;;3.67;;
9536;SDS011;4807;48.024;11.726;2023-05-21T15:04:11;4.33;;;3.33;;
9536;SDS011;4807;48.024;11.726;2023-05-21T15:07:19;3.83;;;3.53;;
9536;SDS011;4807;48.024;11.726;2023-05-21T15:10:28;4.00;;;3.70;;
9536;SDS011;4807;48.024;11.726;2023-05-21T15:13:38;3.40;;;3.20;;
9536;SDS011;4807;48.024;11.726;2023-05-21T15:16:47;3.97;;;3.57;;
9536;SDS011;4807;48.024;11.726;2023-05-21T15:19:58;4.10;;;3.60;;
9536;SDS011;4807;48.024;11.726;2023-05-21T15:23:10;4.17;;;3.40;;
9536;SDS011;4807;48.024;11.726;2023-05-21T15:26:23;3.67;;;3.30;;
9536;SDS011;4807;48.024;11.726;2023-05-21T15:29:33;4.13;;;3.70;;
9536;SDS011;4807;48.024;11.726;2023-05-21T15:32:42;5.93;;;3.70;;
9536;SDS011;4807;48.024;11.726;2023-05-21T15:35:50;3.57;;;3.33;;
9536;SDS011;4807;48.024;11.726;2023-05-21T15:38:59;3.37;;;3.07;;
9536;SDS011;4807;48.024;11.726;2023-05-21T15:42:10;2.97;;;2.70;;
9536;SDS011;4807;48.024;11.726;2023-05-21T15:45:21;3.53;;;3.20;;
9536;SDS011;4807;48.024;11.726;2023-05-21T15:48:29;3.13;;;2.87;;
9536;SDS011;4807;48.024;11.726;2023-05-21T15:51:38;3.00;;;2.80;;
9536;SDS011;4807;48.024;11.726;2023-05-21T15:54:47;3.63;;;3.33;;
9536;SDS011;4807;48.024;11.726;2023-05-21T15:57:55;3.67;;;3.10;;
9536;SDS011;4807;48.024;11.726;2023-05-21T16:01:08;3.10;;;2.90;;
9536;SDS011;4807;48.024;11.726;2023-05-21T16:04:18;4.10;;;3.70;;
9536;SDS011;4807;48.024;11.726;2023-05-21T16:07:26;3.73;;;3.10;;
9536;SDS011;4807;48.024;11.726;2023-05-21T16:10:35;3.23;;;2.97;;
9536;SDS011;4807;48.024;11.726;2023-05-21T16:13:45;10.53;;;8.17;;
9536;SDS011;4807;48.024;11.726;2023-05-21T16:16:55;8.50;;;7.70;;
9536;SDS011;4807;48.024;11.726;2023-05-21T16:20:04;5.43;;;4.00;;
9536;SDS011;4807;48.024;11.726;2023-05-21T16:23:15;4.90;;;4.10;;
9536;SDS011;4807;48.024;11.726;2023-05-21T16:26:24;4.20;;;3.80;;
9536;SDS011;4807;48.024;11.726;2023-05-21T16:29:33;4.00;;;3.20;;
9536;SDS011;4807;48.024;11.726;2023-05-21T16:32:46;3.53;;;3.07;;
9536;SDS011;4807;48.024;11.726;2023-05-21T16:35:55;5.03;;;3.53;;
9536;SDS011;4807;48.024;11.726;2023-05-21T16:39:04;3.00;;;2.50;;
9536;SDS011;4807;48.024;11.726;2023-05-21T16:42:12;3.57;;;2.93;;
9536;SDS011;4807;48.024;11.726;2023-05-21T16:45:21;3.93;;;3.20;;
9536;SDS011;4807;48.024;11.726;2023-05-21T16:48:31;5.57;;;3.00;;
9536;SDS011;4807;48.024;11.726;2023-05-21T16:51:42;2.90;;;2.70;;
9536;SDS011;4807;48.024;11.726;2023-05-21T16:54:51;3.07;;;2.70;;
9536;SDS011;4807;48.024;11.726;2023-05-21T16:58:00;3.57;;;3.23;;
9536;SDS011;4807;48.024;11.726;2023-05-21T17:01:12;4.47;;;3.20;;
9536;SDS011;4807;48.024;11.726;2023-05-21T17:04:23;2.63;;;2.43;;
9536;SDS011;4807;48.024;11.726;2023-05-21T17:07:31;3.90;;;3.50;;
9536;SDS011;4807;48.024;11.726;2023-05-21T17:10:40;5.50;;;3.00;;
9536;SDS011;4807;48.024;11.726;2023-05-21T17:13:48;7.60;;;6.23;;
9536;SDS011;4807;48.024;11.726;2023-05-21T17:16:57;4.00;;;3.60;;
9536;SDS011;4807;48.024;11.726;2023-05-21T17:20:08;2.70;;;2.50;;
9536;SDS011;4807;48.024;11.726;2023-05-21T17:23:18;3.07;;;2.77;;
9536;SDS011;4807;48.024;11.726;2023-05-21T17:26:27;3.33;;;3.03;;
9536;SDS011;4807;48.024;11.726;2023-05-21T17:29:36;4.07;;;3.13;;
9536;SDS011;4807;48.024;11.726;2023-05-21T17:32:44;3.20;;;2.90;;
9536;SDS011;4807;48.024;11.726;2023-05-21T17:35:54;2.43;;;2.23;;
9536;SDS011;4807;48.024;11.726;2023-05-21T17:39:03;3.90;;;3.17;;
9536;SDS011;4807;48.024;11.726;2023-05-21T17:42:11;3.73;;;3.30;;
9536;SDS011;4807;48.024;11.726;2023-05-21T17:45:20;2.97;;;2.77;;
9536;SDS011;4807;48.024;11.726;2023-05-21T17:48:28;2.67;;;2.47;;
9536;SDS011;4807;48.024;11.726;2023-05-21T17:51:38;3.30;;;3.00;;
9536;SDS011;4807;48.024;11.726;2023-05-21T17:54:46;6.00;;;3.07;;
9536;SDS011;4807;48.024;11.726;2023-05-21T17:57:55;5.27;;;2.83;;
9536;SDS011;4807;48.024;11.726;2023-05-21T18:01:04;3.67;;;2.60;;
9536;SDS011;4807;48.024;11.726;2023-05-21T18:04:12;3.43;;;3.07;;
9536;SDS011;4807;48.024;11.726;2023-05-21T18:07:22;3.70;;;2.60;;
9536;SDS011;4807;48.024;11.726;2023-05-21T18:10:30;3.90;;;3.50;;
9536;SDS011;4807;48.024;11.726;2023-05-21T18:13:39;4.97;;;3.63;;
9536;SDS011;4807;48.024;11.726;2023-05-21T18:16:47;4.70;;;3.03;;
9536;SDS011;4807;48.024;11.726;2023-05-21T18:19:56;3.77;;;3.27;;
9536;SDS011;4807;48.024;11.726;2023-05-21T18:23:06;4.90;;;3.73;;
9536;SDS011;4807;48.024;11.726;2023-05-21T18:26:16;4.87;;;3.13;;
9536;SDS011;4807;48.024;11.726;2023-05-21T18:29:25;3.07;;;2.80;;
9536;SDS011;4807;48.024;11.726;2023-05-21T18:32:34;3.77;;;3.13;;
9536;SDS011;4807;48.024;11.726;2023-05-21T18:35:44;3.37;;;3.10;;
9536;SDS011;4807;48.024;11.726;2023-05-21T18:38:54;4.10;;;3.60;;
9536;SDS011;4807;48.024;11.726;2023-05-21T18:42:03;4.17;;;3.77;;
9536;SDS011;4807;48.024;11.726;2023-05-21T18:45:19;4.20;;;3.80;;
9536;SDS011;4807;48.024;11.726;2023-05-21T18:48:27;6.37;;;4.20;;
9536;SDS011;4807;48.024;11.726;2023-05-21T18:51:35;4.07;;;3.67;;
9536;SDS011;4807;48.024;11.726;2023-05-21T18:54:46;4.43;;;4.03;;
9536;SDS011;4807;48.024;11.726;2023-05-21T18:57:54;5.07;;;4.50;;
9536;SDS011;4807;48.024;11.726;2023-05-21T19:01:03;4.50;;;4.10;;
9536;SDS011;4807;48.024;11.726;2023-05-21T19:04:12;7.10;;;3.97;;
9536;SDS011;4807;48.024;11.726;2023-05-21T19:07:21;4.77;;;4.23;;
9536;SDS011;4807;48.024;11.726;2023-05-21T19:10:31;8.00;;;4.43;;
9536;SDS011;4807;48.024;11.726;2023-05-21T19:13:40;4.90;;;4.50;;
9536;SDS011;4807;48.024;11.726;2023-05-21T19:16:49;6.37;;;4.67;;
9536;SDS011;4807;48.024;11.726;2023-05-21T19:19:57;6.97;;;4.47;;
9536;SDS011;4807;48.024;11.726;2023-05-21T19:23:05;4.50;;;4.10;;
9536;SDS011;4807;48.024;11.726;2023-05-21T19:26:15;4.70;;;4.30;;